Terminal Aerodrome Forecast
Issued by NWS

Current Version | Previous Version | Text Only | Print | Product List | Glossary Off
Versions: 1 2 3 4 5 6 7 8 9 10 11 12 13 14 15 16 17 18 19 20 21 22 23 24 25

000
FTUS41 KPBZ 051151
TAFMGW
TAF
KMGW 051151Z 0512/0612 VRB03KT 4SM -SHRA BR BKN009
      TEMPO 0513/0515 2SM -SHRA BR OVC007
     FM051700 01004KT 4SM BR OVC015
     FM060400 35005KT P6SM VCSH BKN008=

USA.gov is the U.S. government's official web portal to all federal, state and local government web resources and services.